KAND/AND METAR and TAF weather

Enter ICAO airport designator
Station Type Date Time Source
KAND METAR 2023/11/29 10:56 UTC NOAA

KAND 291056Z AUTO 00000KT 10SM CLR M05/M08 A3024 RMK AO2 SLP243 T10501083


Station Type Date Time Source
KAND Decoded METAR 2023/11/29 10:56 UTC NOAA

ANDERSON COUNTY AIRPORT, SC, United States (KAND) 34-30N 82-43W 239M
Nov 29, 2023 - 05:56 AM EST / 2023.11.29 1056 UTC
Wind: Calm:0
Visibility: 10 mile(s):0
Sky conditions: clear
Temperature: 23.0 F (-5.0 C)
Dew Point: 17.1 F (-8.3 C)
Relative Humidity: 77%
Pressure (altimeter): 30.24 in. Hg (1024 hPa)
ob: KAND 291056Z AUTO 00000KT 10SM CLR M05/M08 A3024 RMK AO2 SLP243 T10501083
cycle: 11

Station Type Date Time Source
KAND TAF 2023/11/29 12:33 UTC NOAA

TAF KAND 291131Z 2912/3012 00000KT P6SM SKC
FM291400 07003KT P6SM SKC
FM291600 16004KT P6SM SKC
FM291800 23007KT P6SM SKC
FM300000 22004KT P6SM FEW250

Example: see airport list